Time;durP1;ratioP1;P1;durP2;ratioP2;P2;SDS_P1;SDS_P2;PMS_P1;PMS_P2;Temp;Humidity;BMP_temperature;BMP_pressure;BME280_temperature;BME280_humidity;BME280_pressure;Samples;Min_cycle;Max_cycle;Signal;HPM_P1;HPM_P2
2022/04/09 00:00:56;;;;;;;10.77;2.93;;;4.20;99.90;;;;;;5008221;28;20045;-83
2022/04/09 00:03:22;;;;;;;9.97;3.13;;;4.30;99.90;;;;;;4983552;28;20045;-84
2022/04/09 00:05:48;;;;;;;5.73;1.57;;;4.40;99.90;;;;;;4976832;28;20616;-85
2022/04/09 00:08:14;;;;;;;10.93;2.87;;;4.40;99.90;;;;;;4984209;28;20087;-80
2022/04/09 00:10:40;;;;;;;7.93;2.10;;;4.20;99.90;;;;;;4995861;28;20053;-84
2022/04/09 00:13:06;;;;;;;8.90;2.50;;;4.20;99.90;;;;;;4995636;28;20042;-79
2022/04/09 00:15:35;;;;;;;7.47;2.20;;;4.10;99.90;;;;;;5015368;28;20523;-80
2022/04/09 00:18:01;;;;;;;8.57;2.30;;;4.10;99.90;;;;;;5010518;28;20736;-79
2022/04/09 00:20:26;;;;;;;7.03;2.13;;;4.00;99.90;;;;;;4994798;28;20042;-83
2022/04/09 00:22:52;;;;;;;9.57;2.33;;;3.90;99.90;;;;;;4993977;28;20275;-83
2022/04/09 00:25:23;;;;;;;8.47;2.70;;;3.90;99.90;;;;;;4965330;28;20056;-82
2022/04/09 00:27:53;;;;;;;7.43;2.43;;;3.90;99.90;;;;;;4979274;28;20046;-83
2022/04/09 00:30:19;;;;;;;12.23;3.43;;;3.80;99.90;;;;;;4994164;28;20033;-82
2022/04/09 00:32:45;;;;;;;12.73;4.30;;;3.80;99.90;;;;;;5009871;28;20535;-83
2022/04/09 00:35:11;;;;;;;12.50;3.80;;;3.70;99.90;;;;;;4992633;28;20350;-82
2022/04/09 00:37:45;;;;;;;12.17;3.77;;;3.70;99.90;;;;;;4993456;28;20041;-79
2022/04/09 00:40:18;;;;;;;12.93;4.10;;;3.70;99.90;;;;;;4976942;28;20045;-80
2022/04/09 00:42:45;;;;;;;11.13;3.90;;;3.70;99.90;;;;;;4993269;28;20156;-81
2022/04/09 00:45:12;;;;;;;14.30;4.20;;;3.80;99.90;;;;;;4993762;28;20048;-80
2022/04/09 00:47:38;;;;;;;13.10;3.10;;;3.90;99.90;;;;;;4993348;28;20059;-80
2022/04/09 00:50:05;;;;;;;9.93;3.00;;;4.00;99.90;;;;;;4992942;28;20045;-79
2022/04/09 00:52:34;;;;;;;10.07;3.03;;;4.00;99.90;;;;;;4992440;28;20053;-80
2022/04/09 00:55:04;;;;;;;15.17;3.30;;;4.00;99.90;;;;;;4985540;28;20058;-80
2022/04/09 00:57:34;;;;;;;13.00;2.95;;;4.10;99.90;;;;;;4992259;28;20053;-81
2022/04/09 01:00:11;;;;;;;15.13;3.90;;;4.20;99.90;;;;;;4971240;28;20049;-79
2022/04/09 01:02:41;;;;;;;13.53;3.50;;;4.20;99.90;;;;;;4989698;28;20045;-79
2022/04/09 01:05:08;;;;;;;12.25;3.40;;;4.20;99.90;;;;;;4974190;28;20056;-80
2022/04/09 01:07:34;;;;;;;12.33;2.90;;;4.20;99.90;;;;;;4957078;28;20046;-79
2022/04/09 01:10:01;;;;;;;12.93;3.77;;;4.20;99.90;;;;;;4973201;28;20109;-79
2022/04/09 01:12:27;;;;;;;10.43;3.20;;;4.20;99.90;;;;;;4959231;28;20042;-80
2022/04/09 01:14:53;;;;;;;12.83;3.20;;;4.30;99.90;;;;;;4973295;28;20092;-80
2022/04/09 01:17:19;;;;;;;10.43;2.90;;;4.30;99.90;;;;;;4957535;28;20081;-78
2022/04/09 01:19:44;;;;;;;10.43;2.97;;;4.20;99.90;;;;;;4989700;28;20080;-79
2022/04/09 01:22:10;;;;;;;10.37;3.33;;;4.20;99.90;;;;;;4973035;28;20620;-80
2022/04/09 01:24:36;;;;;;;7.53;2.73;;;4.10;99.90;;;;;;4957671;28;20061;-80
2022/04/09 01:27:03;;;;;;;10.27;3.00;;;4.10;99.90;;;;;;4954811;28;20042;-80
2022/04/09 01:29:29;;;;;;;10.17;2.77;;;4.10;99.90;;;;;;4973148;28;20597;-79
2022/04/09 01:31:55;;;;;;;11.70;3.17;;;4.00;99.90;;;;;;4970942;28;20042;-81
2022/04/09 01:34:21;;;;;;;9.97;2.97;;;4.00;99.90;;;;;;4940082;28;20092;-81
2022/04/09 01:36:47;;;;;;;14.57;3.67;;;4.00;99.90;;;;;;4973181;28;20176;-82
2022/04/09 01:39:17;;;;;;;8.17;2.50;;;4.00;99.90;;;;;;4958074;28;20170;-81
2022/04/09 01:41:44;;;;;;;12.00;3.47;;;4.10;99.90;;;;;;4959457;28;20050;-84
2022/04/09 01:44:10;;;;;;;13.70;3.13;;;4.10;99.90;;;;;;4941728;28;20129;-81
2022/04/09 01:46:37;;;;;;;12.23;3.53;;;4.20;99.90;;;;;;4958703;28;20136;-82
2022/04/09 01:49:04;;;;;;;11.07;3.43;;;4.20;99.90;;;;;;4941451;28;20052;-82
2022/04/09 01:51:29;;;;;;;13.57;3.50;;;4.20;99.90;;;;;;4957354;28;20050;-79
2022/04/09 01:53:55;;;;;;;10.60;3.70;;;4.20;99.90;;;;;;4974699;28;20092;-79
2022/04/09 01:56:21;;;;;;;15.23;4.00;;;4.10;99.90;;;;;;5005345;28;20097;-80
2022/04/09 01:58:47;;;;;;;11.83;4.20;;;4.10;99.90;;;;;;5009085;28;20045;-80
2022/04/09 02:01:16;;;;;;;12.00;3.97;;;4.10;99.90;;;;;;4976576;28;20095;-80
2022/04/09 02:03:42;;;;;;;12.30;3.45;;;4.10;99.90;;;;;;4990911;28;20072;-80
2022/04/09 02:06:08;;;;;;;13.27;4.00;;;4.10;99.90;;;;;;5008093;28;20052;-80
2022/04/09 02:08:34;;;;;;;15.67;4.10;;;4.00;99.90;;;;;;5004918;28;20049;-80
2022/04/09 02:11:00;;;;;;;20.60;4.57;;;3.90;99.90;;;;;;4961220;28;20060;-79
2022/04/09 02:13:26;;;;;;;15.43;4.80;;;3.90;99.90;;;;;;5006612;28;20041;-79
2022/04/09 02:15:52;;;;;;;13.57;3.90;;;3.80;99.90;;;;;;4994290;28;20689;-79
2022/04/09 02:18:17;;;;;;;16.43;4.50;;;3.70;99.90;;;;;;4982412;28;20073;-80
2022/04/09 02:20:43;;;;;;;13.03;3.90;;;3.60;99.90;;;;;;4999601;28;20056;-80
2022/04/09 02:23:09;;;;;;;14.90;3.97;;;3.60;99.90;;;;;;4991014;28;20484;-80
2022/04/09 02:25:34;;;;;;;13.50;3.73;;;3.50;99.90;;;;;;4963917;28;20064;-79
2022/04/09 02:28:00;;;;;;;11.93;3.50;;;3.60;99.90;;;;;;4967191;28;20529;-80
2022/04/09 02:30:26;;;;;;;12.40;3.53;;;3.40;99.90;;;;;;4995698;28;20105;-80
2022/04/09 02:32:52;;;;;;;14.40;3.53;;;3.50;99.90;;;;;;4985235;28;20091;-80
2022/04/09 02:35:20;;;;;;;13.40;3.63;;;3.40;99.90;;;;;;5020540;28;20044;-80
2022/04/09 02:37:47;;;;;;;12.50;2.90;;;3.40;99.90;;;;;;5024187;28;20052;-80
2022/04/09 02:40:13;;;;;;;8.27;2.60;;;3.40;99.90;;;;;;4985069;28;20039;-80
2022/04/09 02:42:40;;;;;;;9.10;2.50;;;3.40;99.90;;;;;;5013810;28;20053;-80
2022/04/09 02:45:07;;;;;;;10.17;2.80;;;3.40;99.90;;;;;;4995617;28;20044;-79
2022/04/09 02:47:33;;;;;;;6.93;2.23;;;3.40;99.90;;;;;;4966318;28;20128;-80
2022/04/09 02:50:04;;;;;;;8.60;2.60;;;3.40;99.90;;;;;;4958147;28;20034;-80
2022/04/09 02:52:41;;;;;;;8.87;2.30;;;3.40;99.90;;;;;;5000387;28;20169;-79
2022/04/09 02:55:08;;;;;;;8.83;2.27;;;3.40;99.90;;;;;;4984650;28;20061;-80
2022/04/09 02:57:36;;;;;;;8.53;2.27;;;3.40;99.90;;;;;;4977265;28;20558;-79
2022/04/09 03:00:05;;;;;;;13.07;2.27;;;3.30;99.90;;;;;;4982607;28;20041;-80
2022/04/09 03:02:31;;;;;;;7.30;2.40;;;3.30;99.90;;;;;;4998515;28;20053;-80
2022/04/09 03:04:57;;;;;;;8.17;2.47;;;3.30;99.90;;;;;;4984936;28;20076;-79
2022/04/09 03:07:23;;;;;;;9.73;2.00;;;3.30;99.90;;;;;;4995597;28;20862;-80
2022/04/09 03:09:49;;;;;;;11.90;2.33;;;3.30;99.90;;;;;;4996995;28;20686;-80
2022/04/09 03:12:15;;;;;;;6.73;1.80;;;3.30;99.90;;;;;;4993476;28;20073;-80
2022/04/09 03:14:43;;;;;;;8.30;1.93;;;3.30;99.90;;;;;;5001162;28;20052;-79
2022/04/09 03:17:10;;;;;;;10.03;2.90;;;3.30;99.90;;;;;;4974058;28;20164;-79
2022/04/09 03:19:35;;;;;;;13.13;2.93;;;3.30;99.90;;;;;;4985925;28;20046;-80
2022/04/09 03:22:01;;;;;;;9.13;2.20;;;3.30;99.90;;;;;;4958612;28;20041;-80
2022/04/09 03:24:27;;;;;;;7.93;2.33;;;3.30;99.90;;;;;;4981999;28;20057;-80
2022/04/09 03:26:56;;;;;;;7.97;2.40;;;3.30;99.90;;;;;;4977787;28;20045;-79
2022/04/09 03:29:22;;;;;;;9.53;2.73;;;3.30;99.90;;;;;;5007847;28;20116;-79
2022/04/09 03:31:48;;;;;;;8.57;2.03;;;3.30;99.90;;;;;;4988669;28;20128;-79
2022/04/09 03:34:13;;;;;;;9.90;2.80;;;3.20;99.90;;;;;;4978894;28;20332;-80
2022/04/09 03:36:39;;;;;;;12.03;2.50;;;3.30;99.90;;;;;;4977979;28;20052;-81
2022/04/09 03:39:05;;;;;;;10.83;2.50;;;3.30;99.90;;;;;;4994414;28;20042;-79
2022/04/09 03:41:31;;;;;;;8.97;2.30;;;3.30;99.90;;;;;;4979656;28;20050;-80
2022/04/09 03:43:57;;;;;;;13.47;3.50;;;3.40;99.90;;;;;;4979878;28;21055;-79
2022/04/09 03:46:23;;;;;;;10.67;2.40;;;3.40;99.90;;;;;;4975032;28;20042;-80
2022/04/09 03:48:49;;;;;;;10.37;2.70;;;3.40;99.90;;;;;;4980391;28;20042;-79
2022/04/09 03:51:14;;;;;;;9.53;2.10;;;3.40;99.90;;;;;;4994749;28;20047;-79
2022/04/09 03:53:40;;;;;;;10.27;2.33;;;3.40;99.90;;;;;;4987985;28;20041;-79
2022/04/09 03:56:06;;;;;;;12.37;2.60;;;3.50;99.90;;;;;;4957895;28;20116;-79
2022/04/09 03:58:38;;;;;;;10.00;2.23;;;3.50;99.90;;;;;;4997383;28;20635;-80
2022/04/09 04:01:04;;;;;;;6.87;1.63;;;3.60;99.90;;;;;;4983624;28;20042;-81
2022/04/09 04:03:29;;;;;;;6.27;1.07;;;3.70;99.90;;;;;;4956985;28;20585;-80
2022/04/09 04:05:55;;;;;;;5.27;1.00;;;3.80;99.90;;;;;;4990640;28;20057;-81
2022/04/09 04:08:21;;;;;;;6.57;1.10;;;3.90;99.90;;;;;;4976576;28;20154;-79
2022/04/09 04:10:47;;;;;;;6.57;1.20;;;3.90;99.90;;;;;;4992049;28;20499;-80
2022/04/09 04:13:13;;;;;;;7.70;1.27;;;3.90;99.90;;;;;;4991151;28;20049;-80
2022/04/09 04:15:40;;;;;;;7.83;1.43;;;3.90;99.90;;;;;;4975417;28;20468;-79
2022/04/09 04:18:06;;;;;;;11.27;1.80;;;3.80;99.90;;;;;;4991965;28;20041;-79
2022/04/09 04:20:33;;;;;;;7.33;1.53;;;3.80;99.90;;;;;;4959786;28;20076;-79
2022/04/09 04:22:59;;;;;;;7.77;1.97;;;3.60;99.90;;;;;;4991474;28;20103;-79
2022/04/09 04:25:25;;;;;;;6.73;2.00;;;3.60;99.90;;;;;;4991804;28;20041;-78
2022/04/09 04:27:51;;;;;;;7.37;2.20;;;3.50;99.90;;;;;;4991336;28;20107;-79
2022/04/09 04:30:18;;;;;;;8.73;2.20;;;3.50;99.90;;;;;;4959165;28;20164;-79
2022/04/09 04:32:45;;;;;;;10.27;2.40;;;3.40;99.90;;;;;;4991318;28;20037;-78
2022/04/09 04:35:12;;;;;;;9.37;2.77;;;3.30;99.90;;;;;;4990682;28;20033;-79
2022/04/09 04:37:45;;;;;;;12.20;1.90;;;3.30;99.90;;;;;;4971280;28;20049;-78
2022/04/09 04:40:12;;;;;;;8.67;2.20;;;3.30;99.90;;;;;;4971414;28;20055;-79
2022/04/09 04:42:38;;;;;;;10.90;2.50;;;3.30;99.90;;;;;;4987915;28;20049;-78
2022/04/09 04:45:05;;;;;;;8.87;2.37;;;3.40;99.90;;;;;;5006761;28;20586;-78
2022/04/09 04:47:32;;;;;;;8.93;2.40;;;3.40;99.90;;;;;;5007645;28;20053;-78
2022/04/09 04:50:04;;;;;;;10.87;2.40;;;3.40;99.90;;;;;;4974633;28;20128;-78
2022/04/09 04:52:29;;;;;;;9.43;2.47;;;3.40;99.90;;;;;;4980084;28;20124;-79
2022/04/09 04:54:55;;;;;;;8.60;2.67;;;3.40;99.90;;;;;;4994071;28;20128;-79
2022/04/09 04:57:21;;;;;;;9.53;2.60;;;3.40;99.90;;;;;;4979387;28;20044;-78
2022/04/09 04:59:47;;;;;;;10.00;2.63;;;3.40;99.90;;;;;;4978627;28;20396;-78
2022/04/09 05:02:12;;;;;;;11.23;2.93;;;3.40;99.90;;;;;;4977989;28;20052;-78
2022/04/09 05:04:40;;;;;;;11.43;2.40;;;3.40;99.90;;;;;;4978242;28;20053;-79
2022/04/09 05:07:06;;;;;;;8.63;2.40;;;3.30;99.90;;;;;;4974097;28;20049;-79
2022/04/09 05:09:34;;;;;;;9.13;2.63;;;3.30;99.90;;;;;;4974668;28;20176;-80
2022/04/09 05:12:00;;;;;;;12.60;3.00;;;3.40;99.90;;;;;;4991149;28;20049;-78
2022/04/09 05:14:25;;;;;;;10.27;2.20;;;3.40;99.90;;;;;;4974974;28;20203;-78
2022/04/09 05:16:51;;;;;;;10.60;2.53;;;3.40;99.90;;;;;;5007908;28;20047;-80
2022/04/09 05:19:17;;;;;;;13.17;2.73;;;3.50;99.90;;;;;;5010267;28;20127;-79
2022/04/09 05:21:45;;;;;;;8.27;2.63;;;3.60;99.90;;;;;;4994684;28;20092;-82
2022/04/09 05:24:11;;;;;;;10.70;2.40;;;3.70;99.90;;;;;;4978733;28;20134;-79
2022/04/09 05:26:37;;;;;;;7.83;2.07;;;3.70;99.90;;;;;;4961755;28;20690;-78
2022/04/09 05:29:05;;;;;;;11.97;2.80;;;3.70;99.90;;;;;;4961994;28;20569;-79
2022/04/09 05:31:31;;;;;;;9.10;2.50;;;3.80;99.90;;;;;;4978184;28;20041;-79
2022/04/09 05:33:57;;;;;;;11.63;3.07;;;3.80;99.90;;;;;;4994084;28;20101;-79
2022/04/09 05:36:23;;;;;;;9.63;2.37;;;3.80;99.90;;;;;;4996167;28;20045;-79
2022/04/09 05:38:49;;;;;;;10.60;2.83;;;3.80;99.90;;;;;;4997786;28;20045;-80
2022/04/09 05:41:15;;;;;;;12.20;3.20;;;3.80;99.90;;;;;;5014529;28;20063;-78
2022/04/09 05:43:41;;;;;;;11.97;2.80;;;3.80;99.90;;;;;;5014382;28;20396;-79
2022/04/09 05:46:07;;;;;;;10.97;2.67;;;3.90;99.90;;;;;;4997113;28;20041;-79
2022/04/09 05:48:36;;;;;;;12.47;3.20;;;4.00;99.90;;;;;;5013747;28;20095;-79
2022/04/09 05:51:05;;;;;;;9.90;2.23;;;4.20;99.90;;;;;;4975380;28;20060;-82
2022/04/09 05:53:31;;;;;;;8.03;1.97;;;4.30;99.90;;;;;;4993425;28;20033;-79
2022/04/09 05:55:59;;;;;;;8.47;2.23;;;4.60;99.90;;;;;;4976117;28;20049;-80
2022/04/09 05:58:25;;;;;;;7.37;1.83;;;4.70;99.90;;;;;;4978253;28;20080;-84
2022/04/09 06:00:51;;;;;;;6.60;1.60;;;4.90;99.90;;;;;;4992386;28;20084;-80
2022/04/09 06:03:17;;;;;;;8.83;1.93;;;4.90;99.90;;;;;;4993136;28;20049;-79
2022/04/09 06:05:43;;;;;;;8.47;1.40;;;4.90;99.90;;;;;;4992374;28;20123;-79
2022/04/09 06:08:09;;;;;;;7.73;1.93;;;4.90;99.90;;;;;;4992457;28;20229;-79
2022/04/09 06:10:35;;;;;;;6.23;1.30;;;4.80;99.90;;;;;;4961753;28;20079;-79
2022/04/09 06:13:00;;;;;;;6.87;1.43;;;4.80;99.90;;;;;;5010727;28;20133;-78
2022/04/09 06:15:26;;;;;;;7.37;1.77;;;4.80;99.90;;;;;;4992376;28;20049;-79
2022/04/09 06:17:52;;;;;;;8.80;2.17;;;4.80;99.90;;;;;;4991785;28;20599;-79
2022/04/09 06:20:18;;;;;;;7.40;1.90;;;4.70;99.90;;;;;;4992962;28;20185;-79
2022/04/09 06:22:44;;;;;;;7.43;1.87;;;4.80;99.90;;;;;;4994231;28;20069;-79
2022/04/09 06:25:10;;;;;;;10.30;2.27;;;4.80;99.90;;;;;;4993064;28;20114;-80
2022/04/09 06:27:39;;;;;;;11.00;1.80;;;4.80;99.90;;;;;;4977190;28;20053;-79
2022/04/09 06:30:06;;;;;;;9.43;2.35;;;4.90;99.90;;;;;;4994634;28;20662;-79
2022/04/09 06:32:31;;;;;;;10.17;1.97;;;4.90;99.90;;;;;;5013136;28;20045;-79
2022/04/09 06:35:00;;;;;;;8.83;2.30;;;5.00;99.90;;;;;;4996593;28;20542;-80
2022/04/09 06:37:26;;;;;;;15.00;2.77;;;5.10;99.90;;;;;;4974102;28;20099;-79
2022/04/09 06:39:52;;;;;;;9.13;2.30;;;5.20;99.90;;;;;;4990027;28;20128;-78
2022/04/09 06:42:18;;;;;;;12.63;2.80;;;5.30;99.90;;;;;;4973977;28;20050;-79
2022/04/09 06:44:43;;;;;;;9.07;2.40;;;5.40;99.90;;;;;;4976911;28;20063;-80
2022/04/09 06:47:09;;;;;;;10.57;2.07;;;5.50;99.90;;;;;;4974364;28;20100;-81
2022/04/09 06:49:38;;;;;;;14.20;2.73;;;5.60;99.90;;;;;;4982820;28;20545;-81
2022/04/09 06:52:05;;;;;;;10.67;2.10;;;5.80;99.90;;;;;;4994890;28;20056;-81
2022/04/09 06:54:31;;;;;;;12.97;2.20;;;5.90;99.90;;;;;;4997229;28;20049;-81
2022/04/09 06:56:57;;;;;;;9.73;2.40;;;6.10;99.90;;;;;;4974756;28;20053;-80
2022/04/09 06:59:23;;;;;;;10.82;2.33;;;6.20;99.90;;;;;;5014839;28;20068;-78
2022/04/09 07:01:49;;;;;;;8.17;1.90;;;6.20;99.90;;;;;;4980544;28;20545;-82
2022/04/09 07:04:16;;;;;;;10.50;2.05;;;6.20;99.90;;;;;;4998923;28;20545;-79
2022/04/09 07:06:44;;;;;;;8.30;1.87;;;6.10;99.90;;;;;;4967963;28;20045;-82
2022/04/09 07:09:10;;;;;;;9.63;2.00;;;6.00;99.90;;;;;;4970131;28;20048;-80
2022/04/09 07:11:36;;;;;;;9.60;2.65;;;5.90;99.90;;;;;;4982693;28;20116;-81
2022/04/09 07:14:01;;;;;;;7.40;1.52;;;5.90;99.90;;;;;;5000855;28;20041;-82
2022/04/09 07:16:28;;;;;;;9.03;1.20;;;6.00;99.90;;;;;;4983010;28;20037;-81
2022/04/09 07:18:55;;;;;;;4.57;1.20;;;6.10;99.90;;;;;;4978601;28;20116;-86
2022/04/09 07:21:23;;;;;;;5.15;1.10;;;6.20;99.90;;;;;;5013855;28;20052;-85
2022/04/09 07:23:49;;;;;;;6.15;1.60;;;6.30;99.90;;;;;;5015565;28;20068;-87
2022/04/09 07:26:16;;;;;;;5.50;1.15;;;6.40;99.90;;;;;;4975626;28;20515;-80
2022/04/09 07:28:42;;;;;;;7.87;1.53;;;6.40;99.90;;;;;;4994363;28;20049;-79
2022/04/09 07:31:08;;;;;;;10.80;1.90;;;6.60;99.90;;;;;;5012091;28;20128;-81
2022/04/09 07:33:34;;;;;;;7.78;1.65;;;6.70;99.90;;;;;;4977599;28;20044;-81
2022/04/09 07:36:00;;;;;;;9.13;2.25;;;6.80;99.90;;;;;;4999869;28;20458;-81
2022/04/09 07:38:26;;;;;;;10.23;1.95;;;6.90;99.90;;;;;;4973099;28;20048;-81
2022/04/09 07:40:54;;;;;;;8.30;1.90;;;7.00;99.90;;;;;;4991668;28;20496;-82
2022/04/09 07:43:19;;;;;;;10.88;1.92;;;7.10;99.90;;;;;;4978185;28;20091;-80
2022/04/09 07:45:46;;;;;;;11.60;2.33;;;7.20;99.90;;;;;;4994868;28;20080;-83
2022/04/09 07:48:12;;;;;;;6.65;1.35;;;7.30;99.90;;;;;;4999864;28;20048;-80
2022/04/09 07:50:38;;;;;;;6.93;1.60;;;7.40;99.90;;;;;;5013009;28;20056;-81
2022/04/09 07:53:05;;;;;;;8.73;1.40;;;7.50;99.90;;;;;;4999887;28;20569;-80
2022/04/09 07:55:30;;;;;;;10.75;1.83;;;7.50;99.90;;;;;;5012154;28;20041;-79
2022/04/09 07:58:05;;;;;;;11.43;2.20;;;7.60;99.90;;;;;;4989082;28;20131;-80
2022/04/09 08:00:31;;;;;;;8.43;1.80;;;7.70;99.90;;;;;;4987167;28;20053;-81
2022/04/09 08:02:57;;;;;;;11.30;2.10;;;7.80;99.90;;;;;;4971211;28;20047;-80
2022/04/09 08:05:23;;;;;;;8.52;1.88;;;7.90;99.90;;;;;;4968456;28;20057;-82
2022/04/09 08:07:48;;;;;;;10.82;2.08;;;7.90;99.90;;;;;;4970799;28;20049;-79
2022/04/09 08:10:14;;;;;;;7.82;2.13;;;7.90;99.90;;;;;;4990314;28;20491;-78
2022/04/09 08:12:51;;;;;;;8.43;1.20;;;7.90;99.90;;;;;;4971053;28;20045;-81
2022/04/09 08:15:18;;;;;;;9.43;1.83;;;8.00;99.90;;;;;;4984521;28;20045;-83
2022/04/09 08:17:44;;;;;;;10.80;3.08;;;8.00;99.90;;;;;;4974168;28;20081;-80
2022/04/09 08:20:12;;;;;;;8.45;1.58;;;8.00;99.90;;;;;;5004065;28;20076;-86
2022/04/09 08:22:38;;;;;;;7.82;1.50;;;7.90;99.90;;;;;;4991010;28;20049;-80
2022/04/09 08:25:05;;;;;;;6.38;1.80;;;7.90;99.90;;;;;;4979786;28;20053;-78
2022/04/09 08:27:31;;;;;;;9.18;1.70;;;7.90;99.90;;;;;;4975360;28;20081;-82
2022/04/09 08:29:57;;;;;;;8.85;1.60;;;8.10;99.90;;;;;;4962999;28;20085;-79
2022/04/09 08:32:25;;;;;;;11.32;1.90;;;8.30;99.90;;;;;;5013085;28;20068;-81
2022/04/09 08:34:53;;;;;;;8.90;1.98;;;8.40;99.90;;;;;;4994220;28;20041;-83
2022/04/09 08:37:18;;;;;;;7.90;1.75;;;8.50;99.90;;;;;;4993863;28;20495;-81
2022/04/09 08:39:47;;;;;;;7.15;1.60;;;8.50;99.90;;;;;;5002987;28;20545;-90
2022/04/09 08:42:14;;;;;;;7.35;1.67;;;8.60;99.90;;;;;;4995694;28;20041;-80
2022/04/09 08:44:41;;;;;;;5.93;1.50;;;8.70;99.90;;;;;;5008484;28;20045;-83
2022/04/09 08:47:12;;;;;;;8.35;1.70;;;8.70;99.90;;;;;;5001573;28;20565;-82
2022/04/09 08:49:40;;;;;;;7.60;1.63;;;8.80;99.90;;;;;;5017372;28;20045;-84
2022/04/09 08:52:08;;;;;;;5.60;1.30;;;8.90;99.90;;;;;;4994364;28;20041;-81
2022/04/09 08:54:36;;;;;;;7.75;1.30;;;8.80;99.90;;;;;;4977440;28;20374;-82
2022/04/09 08:57:03;;;;;;;7.47;1.23;;;8.70;99.90;;;;;;4997766;28;20053;-83
2022/04/09 08:59:29;;;;;;;7.38;1.40;;;8.50;99.90;;;;;;4995436;28;20037;-83
2022/04/09 09:01:55;;;;;;;8.25;1.40;;;8.60;99.90;;;;;;4982756;28;20045;-80
2022/04/09 09:04:21;;;;;;;6.72;1.80;;;8.60;99.90;;;;;;5009714;28;20052;-81
2022/04/09 09:06:47;;;;;;;8.98;1.60;;;8.70;99.90;;;;;;5003902;28;20472;-80
2022/04/09 09:09:29;;;;;;;10.20;1.98;;;8.90;99.90;;;;;;4983529;28;20041;-80
2022/04/09 09:12:00;;;;;;;8.63;1.98;;;8.90;99.90;;;;;;4994617;28;20052;-83
2022/04/09 09:14:33;;;;;;;7.70;2.25;;;8.90;99.90;;;;;;5001226;28;20912;-81
2022/04/09 09:17:02;;;;;;;4.22;1.20;;;9.00;99.90;;;;;;5002945;28;20036;-81
2022/04/09 09:19:45;;;;;;;6.45;1.52;;;9.10;99.90;;;;;;5006091;28;20042;-82
2022/04/09 09:22:12;;;;;;;8.88;1.73;;;9.30;99.90;;;;;;5015013;28;20037;-82
2022/04/09 09:24:38;;;;;;;8.50;1.45;;;9.40;99.90;;;;;;5004903;28;20049;-84
2022/04/09 09:27:08;;;;;;;12.32;1.95;;;9.40;99.90;;;;;;4993510;28;20088;-82
2022/04/09 09:29:36;;;;;;;7.90;1.40;;;9.40;99.90;;;;;;4981052;28;20587;-87
2022/04/09 09:32:05;;;;;;;8.55;1.45;;;9.50;99.90;;;;;;5008061;28;20404;-80
2022/04/09 09:34:32;;;;;;;9.82;1.90;;;9.40;99.90;;;;;;5022273;28;20051;-81
2022/04/09 09:36:58;;;;;;;8.77;1.67;;;9.30;99.90;;;;;;4994081;28;20048;-83
2022/04/09 09:39:25;;;;;;;6.57;1.70;;;9.40;99.90;;;;;;5006385;28;20061;-83
2022/04/09 09:41:55;;;;;;;8.68;2.00;;;9.40;99.90;;;;;;4977429;28;20037;-81
2022/04/09 09:44:23;;;;;;;8.98;1.83;;;9.30;99.90;;;;;;4999814;28;20064;-81
2022/04/09 09:46:51;;;;;;;9.43;2.13;;;9.10;99.90;;;;;;4999750;28;20049;-78
2022/04/09 09:49:18;;;;;;;9.75;1.63;;;8.70;99.90;;;;;;5009626;28;20408;-84
2022/04/09 09:51:44;;;;;;;7.75;1.77;;;8.40;99.90;;;;;;5009328;28;20046;-84
2022/04/09 09:54:14;;;;;;;9.80;1.80;;;8.10;99.90;;;;;;4994209;28;20041;-82
2022/04/09 09:56:42;;;;;;;10.25;1.75;;;8.30;99.90;;;;;;4977762;28;20045;-79
2022/04/09 09:59:12;;;;;;;7.70;1.80;;;8.50;99.90;;;;;;4991562;28;20401;-79
2022/04/09 10:01:41;;;;;;;9.70;1.88;;;8.60;99.90;;;;;;5008063;28;20112;-79
2022/04/09 10:04:08;;;;;;;9.85;1.60;;;8.60;99.90;;;;;;5022686;28;20045;-82
2022/04/09 10:06:36;;;;;;;12.73;1.73;;;8.60;99.90;;;;;;5001664;28;20042;-81
2022/04/09 10:09:05;;;;;;;8.65;1.73;;;8.60;99.90;;;;;;5001284;28;20037;-81
2022/04/09 10:11:35;;;;;;;13.27;2.30;;;8.70;99.90;;;;;;4982175;28;20045;-78
2022/04/09 10:14:02;;;;;;;8.07;1.77;;;8.70;99.90;;;;;;4990920;28;20037;-80
2022/04/09 10:16:31;;;;;;;8.40;1.60;;;8.70;99.90;;;;;;5006493;28;20132;-84
2022/04/09 10:19:00;;;;;;;6.03;1.50;;;8.80;99.90;;;;;;4998770;28;20053;-81
2022/04/09 10:21:28;;;;;;;5.47;1.20;;;9.00;99.90;;;;;;5025875;28;20088;-84
2022/04/09 10:23:57;;;;;;;4.90;1.08;;;9.20;99.90;;;;;;4985157;28;20045;-81
2022/04/09 10:26:25;;;;;;;7.20;1.50;;;9.40;99.90;;;;;;4996523;28;20476;-81
2022/04/09 10:28:51;;;;;;;8.35;1.58;;;9.60;99.90;;;;;;5015204;28;20044;-80
2022/04/09 10:31:23;;;;;;;6.68;1.48;;;9.60;99.90;;;;;;5000039;28;20056;-80
2022/04/09 10:33:56;;;;;;;7.93;1.92;;;9.30;99.90;;;;;;5025589;28;20041;-78
2022/04/09 10:36:41;;;;;;;7.32;1.38;;;9.00;99.90;;;;;;5000601;28;20041;-80
2022/04/09 10:39:26;;;;;;;6.50;1.50;;;8.90;99.90;;;;;;5022387;28;20045;-83
2022/04/09 10:41:55;;;;;;;7.82;2.00;;;8.90;99.90;;;;;;4991728;28;20053;-80
2022/04/09 10:44:35;;;;;;;9.67;1.63;;;9.10;99.90;;;;;;4998417;28;20041;-82
2022/04/09 10:47:03;;;;;;;5.40;1.23;;;9.30;99.90;;;;;;5014942;28;20068;-82
2022/04/09 10:49:29;;;;;;;4.30;1.20;;;9.10;99.90;;;;;;5008155;28;20033;-80
2022/04/09 10:52:03;;;;;;;6.43;1.00;;;8.50;99.90;;;;;;5021358;28;20123;-81
2022/04/09 10:54:29;;;;;;;9.43;1.45;;;8.00;99.90;;;;;;4994160;28;20050;-77
2022/04/09 10:57:07;;;;;;;8.95;1.67;;;7.60;99.90;;;;;;4983160;28;20045;-79
2022/04/09 10:59:34;;;;;;;4.85;1.05;;;7.30;99.90;;;;;;5005735;28;20508;-78
2022/04/09 11:02:00;;;;;;;6.57;1.60;;;7.10;99.90;;;;;;5013028;28;20053;-77
2022/04/09 11:04:29;;;;;;;6.60;1.40;;;7.00;99.90;;;;;;4983802;28;20365;-81
2022/04/09 11:07:15;;;;;;;8.10;1.45;;;6.90;99.90;;;;;;5019303;28;20052;-81
2022/04/09 11:09:51;;;;;;;7.35;1.42;;;6.90;99.90;;;;;;4995806;28;20073;-79
2022/04/09 11:12:29;;;;;;;6.78;1.10;;;6.90;99.90;;;;;;5006023;28;20116;-80
2022/04/09 11:14:59;;;;;;;6.95;1.50;;;7.20;99.90;;;;;;5006664;28;20416;-79
2022/04/09 11:17:35;;;;;;;7.75;1.65;;;7.30;99.90;;;;;;4989316;28;20053;-82
2022/04/09 11:20:03;;;;;;;5.40;1.40;;;7.60;99.90;;;;;;4978083;28;20087;-81
2022/04/09 11:22:35;;;;;;;7.88;2.30;;;7.80;99.90;;;;;;4991295;28;20107;-79
2022/04/09 11:25:02;;;;;;;7.30;1.77;;;7.90;99.90;;;;;;4974369;28;20088;-78
2022/04/09 11:27:29;;;;;;;7.15;1.65;;;7.90;99.90;;;;;;5014569;28;20041;-80
2022/04/09 11:29:55;;;;;;;8.13;1.40;;;8.00;99.90;;;;;;4993174;28;20056;-79
2022/04/09 11:32:22;;;;;;;9.75;1.70;;;8.30;99.90;;;;;;5021804;28;20029;-82
2022/04/09 11:34:55;;;;;;;6.30;1.40;;;8.50;99.90;;;;;;4980677;28;20518;-80
2022/04/09 11:37:23;;;;;;;9.13;1.65;;;8.70;99.90;;;;;;5026676;28;20040;-80
2022/04/09 11:39:53;;;;;;;10.68;1.70;;;8.80;99.90;;;;;;5007769;28;20052;-82
2022/04/09 11:42:28;;;;;;;7.35;1.42;;;8.90;99.90;;;;;;4975186;28;20073;-82
2022/04/09 11:44:54;;;;;;;8.23;1.92;;;8.90;99.90;;;;;;5003044;28;20115;-80
2022/04/09 11:47:24;;;;;;;5.45;1.40;;;8.70;99.90;;;;;;4993887;28;20049;-81
2022/04/09 11:49:50;;;;;;;6.97;1.83;;;8.50;99.90;;;;;;5021689;28;20057;-80
2022/04/09 11:52:26;;;;;;;9.48;1.67;;;8.30;99.90;;;;;;5004446;28;20045;-80
2022/04/09 11:54:58;;;;;;;8.02;1.75;;;8.30;99.90;;;;;;5010467;28;20504;-81
2022/04/09 11:57:24;;;;;;;11.18;1.98;;;8.10;99.90;;;;;;4977371;28;20041;-78
2022/04/09 11:59:52;;;;;;;8.95;2.10;;;7.90;99.90;;;;;;4964742;28;20041;-79
2022/04/09 12:02:24;;;;;;;6.43;2.03;;;8.00;99.90;;;;;;4997367;28;20037;-82
2022/04/09 12:04:51;;;;;;;8.25;1.52;;;8.30;99.90;;;;;;4980284;28;20052;-78
2022/04/09 12:07:18;;;;;;;6.05;1.23;;;8.60;99.90;;;;;;4980554;28;20041;-81
2022/04/09 12:09:44;;;;;;;8.05;1.33;;;8.50;99.90;;;;;;5024818;28;20038;-83
2022/04/09 12:12:10;;;;;;;4.05;0.85;;;8.30;99.90;;;;;;5017829;28;20393;-83
2022/04/09 12:14:37;;;;;;;6.65;1.33;;;7.90;99.90;;;;;;5003831;28;20048;-80
2022/04/09 12:17:11;;;;;;;5.45;1.20;;;7.80;99.90;;;;;;5011348;28;20518;-81
2022/04/09 12:19:38;;;;;;;6.57;1.42;;;8.00;99.90;;;;;;5011586;28;20045;-79
2022/04/09 12:22:30;;;;;;;6.00;1.50;;;8.40;99.90;;;;;;5007832;28;20063;-81
2022/04/09 12:24:59;;;;;;;7.47;1.27;;;8.40;99.90;;;;;;4993403;28;20523;-82
2022/04/09 12:27:55;;;;;;;5.28;0.80;;;8.20;99.90;;;;;;4970783;28;20056;-78
2022/04/09 12:30:44;;;;;;;3.90;0.90;;;8.10;99.90;;;;;;4959086;28;20100;-77
2022/04/09 12:33:12;;;;;;;4.38;1.38;;;8.10;99.90;;;;;;4988504;28;20080;-79
2022/04/09 12:35:39;;;;;;;2.85;0.70;;;8.00;99.90;;;;;;4967608;28;20144;-79
2022/04/09 12:38:05;;;;;;;5.20;0.90;;;7.90;99.90;;;;;;5003852;28;20049;-77
2022/04/09 12:40:32;;;;;;;5.15;1.27;;;7.90;99.90;;;;;;4977504;28;20492;-80
2022/04/09 12:43:25;;;;;;;5.13;1.00;;;7.90;99.90;;;;;;4979700;28;20046;-78
2022/04/09 12:46:12;;;;;;;3.80;0.80;;;7.90;99.90;;;;;;4994066;28;20057;-81
2022/04/09 12:48:45;;;;;;;3.63;0.68;;;8.00;99.90;;;;;;4989093;28;20632;-78
2022/04/09 12:51:18;;;;;;;3.22;1.15;;;8.30;99.90;;;;;;4987918;28;20120;-77
2022/04/09 12:53:44;;;;;;;2.55;0.50;;;8.50;99.90;;;;;;4987187;28;20045;-79
2022/04/09 12:56:13;;;;;;;3.40;0.45;;;8.70;99.90;;;;;;4972963;28;20104;-77